ADDS METAR Data INFO
IDs: Format: Raw Decoded Include TAF

Data at: 1230 UTC 20 Jul 2017

METAR for:PASD (Sand Point Arpt, AK, US)
Text:PASD 201156Z AUTO 01015KT 10SM -RA FEW022 BKN050 OVC110 11/09 A2972 RMK AO2 RAB49 SLP068 P0000 60000 7//// T01110089 10117 20111 53000
Temperature: 11.1°C ( 52°F)
Dewpoint: 8.9°C ( 48°F) [RH = 86%]
Pressure (altimeter):29.72 inches Hg (1006.5 mb) [Sea level pressure: 1006.8 mb]
Winds:from the N (10 degrees) at 17 MPH (15 knots; 7.7 m/s)
Visibility:10 or more sm (16+ km)
Ceiling:5000 feet AGL
Clouds: few clouds at 2200 feet AGL, broken clouds at 5000 feet AGL, overcast cloud deck at 11000 feet AGL
Weather:-RA (light rain)
QC Flag:automated observation with no human augmentation
Text:PASD 201148Z AUTO 01012KT 10SM SCT022 BKN027 BKN050 12/09 A2973 RMK AO2
Temperature: 12.0°C ( 54°F)
Dewpoint: 9.0°C ( 48°F) [RH = 82%]
Pressure (altimeter):29.73 inches Hg (1006.9 mb)
Winds:from the N (10 degrees) at 14 MPH (12 knots; 6.2 m/s)
Visibility:10 or more sm (16+ km)
Ceiling:2700 feet AGL
Clouds: scattered clouds at 2200 feet AGL, broken clouds at 2700 feet AGL, broken clouds at 5000 feet AGL
QC Flag:automated observation with no human augmentation
Text:PASD 201052Z AUTO 34010KT 10SM BKN026 OVC075 12/08 A2972 RMK AO2
Temperature: 12.0°C ( 54°F)
Dewpoint: 8.0°C ( 46°F) [RH = 76%]
Pressure (altimeter):29.72 inches Hg (1006.5 mb)
Winds:from the NNW (340 degrees) at 12 MPH (10 knots; 5.1 m/s)
Visibility:10 or more sm (16+ km)
Ceiling:2600 feet AGL
Clouds: broken clouds at 2600 feet AGL, overcast cloud deck at 7500 feet AGL
QC Flag:automated observation with no human augmentation
Text:PASD 200956Z AUTO 33011KT 10SM SCT020 SCT030 OVC036 11/09 A2972 RMK AO2 SLP068 T01110089
Temperature: 11.1°C ( 52°F)
Dewpoint: 8.9°C ( 48°F) [RH = 86%]
Pressure (altimeter):29.72 inches Hg (1006.5 mb) [Sea level pressure: 1006.8 mb]
Winds:from the NNW (330 degrees) at 13 MPH (11 knots; 5.7 m/s)
Visibility:10 or more sm (16+ km)
Ceiling:3600 feet AGL
Clouds: scattered clouds at 2000 feet AGL, scattered clouds at 3000 feet AGL, overcast cloud deck at 3600 feet AGL
QC Flag:automated observation with no human augmentation
Text:PASD 200925Z AUTO 34012G18KT 10SM SCT016 BKN024 OVC110 11/08 A2973 RMK AO2
Temperature: 11.0°C ( 52°F)
Dewpoint: 8.0°C ( 46°F) [RH = 82%]
Pressure (altimeter):29.73 inches Hg (1006.9 mb)
Winds:from the NNW (340 degrees) at 14 MPH (12 knots; 6.2 m/s) gusting to 21 MPH (18 knots; 9.3 m/s)
Visibility:10 or more sm (16+ km)
Ceiling:2400 feet AGL
Clouds: scattered clouds at 1600 feet AGL, broken clouds at 2400 feet AGL, overcast cloud deck at 11000 feet AGL
QC Flag:automated observation with no human augmentation
Text:PASD 200918Z AUTO 33011KT 10SM SCT016 BKN050 OVC110 11/08 A2973 RMK AO2
Temperature: 11.0°C ( 52°F)
Dewpoint: 8.0°C ( 46°F) [RH = 82%]
Pressure (altimeter):29.73 inches Hg (1006.9 mb)
Winds:from the NNW (330 degrees) at 13 MPH (11 knots; 5.7 m/s)
Visibility:10 or more sm (16+ km)
Ceiling:5000 feet AGL
Clouds: scattered clouds at 1600 feet AGL, broken clouds at 5000 feet AGL, overcast cloud deck at 11000 feet AGL
QC Flag:automated observation with no human augmentation
Text:PASD 200756Z AUTO 33012KT 10SM FEW017 SCT036 SCT044 11/09 A2974 RMK AO2 SLP073 T01110089
Temperature: 11.1°C ( 52°F)
Dewpoint: 8.9°C ( 48°F) [RH = 86%]
Pressure (altimeter):29.74 inches Hg (1007.2 mb) [Sea level pressure: 1007.3 mb]
Winds:from the NNW (330 degrees) at 14 MPH (12 knots; 6.2 m/s)
Visibility:10 or more sm (16+ km)
Ceiling:at least 12,000 feet AGL
Clouds: few clouds at 1700 feet AGL, scattered clouds at 3600 feet AGL, scattered clouds at 4400 feet AGL
QC Flag:automated observation with no human augmentation

TAF for:PASD (Sand Point Arpt, AK, US) issued at 1140 UTC 20 Jul 2017
Text:PASD 201140Z 2012/2112 34011KT P6SM VCSH SCT015 BKN025
Forecast period:1200 to 2000 UTC 20 July 2017
Forecast type:FROM: standard forecast or significant change
Winds:from the NNW (340 degrees) at 13 MPH (11 knots; 5.7 m/s)
Visibility:6 or more sm (10+ km)
Ceiling:2500 feet AGL
Clouds: scattered clouds at 1500 feet AGL, broken clouds at 2500 feet AGL
Weather:VCSH (showers in vicinity)
Text:FM202000 35011KT P6SM SCT030 BKN060 AMD LTD TO CLD VIS AND WIND
Forecast period:2000 UTC 20 July 2017 to 1200 UTC 21 July 2017
Forecast type:FROM: standard forecast or significant change
Winds:from the N (350 degrees) at 13 MPH (11 knots; 5.7 m/s)
Visibility:6 or more sm (10+ km)
Ceiling:6000 feet AGL
Clouds: scattered clouds at 3000 feet AGL, broken clouds at 6000 feet AGL